sensor_id;sensor_type;location;lat;lon;timestamp;P1;durP1;ratioP1;P2;durP2;ratioP2
15406;SDS011;7802;51.568;6.364;2022-12-18T00:00:40;19.80;;;14.13;;
15406;SDS011;7802;51.568;6.364;2022-12-18T00:03:33;24.20;;;14.60;;
15406;SDS011;7802;51.568;6.364;2022-12-18T00:06:28;21.27;;;14.10;;
15406;SDS011;7802;51.568;6.364;2022-12-18T00:25:21;17.47;;;12.10;;
15406;SDS011;7802;51.568;6.364;2022-12-18T00:28:12;23.60;;;12.77;;
15406;SDS011;7802;51.568;6.364;2022-12-18T01:57:36;14.53;;;9.33;;
15406;SDS011;7802;51.568;6.364;2022-12-18T02:03:33;15.37;;;9.90;;
15406;SDS011;7802;51.568;6.364;2022-12-18T02:06:20;13.03;;;8.83;;
15406;SDS011;7802;51.568;6.364;2022-12-18T02:09:15;11.73;;;8.83;;
15406;SDS011;7802;51.568;6.364;2022-12-18T02:12:10;15.30;;;9.37;;
15406;SDS011;7802;51.568;6.364;2022-12-18T02:15:05;12.37;;;8.97;;
15406;SDS011;7802;51.568;6.364;2022-12-18T02:18:00;15.33;;;9.67;;
15406;SDS011;7802;51.568;6.364;2022-12-18T02:20:53;13.60;;;9.80;;
15406;SDS011;7802;51.568;6.364;2022-12-18T02:23:47;15.17;;;9.67;;
15406;SDS011;7802;51.568;6.364;2022-12-18T02:26:43;13.73;;;9.73;;
15406;SDS011;7802;51.568;6.364;2022-12-18T02:29:38;13.00;;;9.37;;
15406;SDS011;7802;51.568;6.364;2022-12-18T02:32:30;15.60;;;10.03;;
15406;SDS011;7802;51.568;6.364;2022-12-18T02:35:20;14.00;;;9.10;;
15406;SDS011;7802;51.568;6.364;2022-12-18T02:38:12;16.07;;;10.10;;
15406;SDS011;7802;51.568;6.364;2022-12-18T02:41:03;14.37;;;9.30;;
15406;SDS011;7802;51.568;6.364;2022-12-18T02:43:55;13.23;;;9.13;;
15406;SDS011;7802;51.568;6.364;2022-12-18T02:46:44;14.20;;;9.00;;
15406;SDS011;7802;51.568;6.364;2022-12-18T02:49:35;14.20;;;9.27;;
15406;SDS011;7802;51.568;6.364;2022-12-18T02:52:31;13.43;;;9.17;;
15406;SDS011;7802;51.568;6.364;2022-12-18T02:55:28;13.27;;;9.50;;
15406;SDS011;7802;51.568;6.364;2022-12-18T02:58:30;13.87;;;9.70;;
15406;SDS011;7802;51.568;6.364;2022-12-18T03:01:33;13.83;;;9.30;;
15406;SDS011;7802;51.568;6.364;2022-12-18T03:04:28;16.13;;;9.80;;
15406;SDS011;7802;51.568;6.364;2022-12-18T03:07:23;14.23;;;9.33;;
15406;SDS011;7802;51.568;6.364;2022-12-18T03:10:19;14.60;;;9.50;;
15406;SDS011;7802;51.568;6.364;2022-12-18T03:13:12;15.23;;;8.97;;
15406;SDS011;7802;51.568;6.364;2022-12-18T03:16:03;13.70;;;8.97;;
15406;SDS011;7802;51.568;6.364;2022-12-18T03:18:58;13.10;;;8.90;;
15406;SDS011;7802;51.568;6.364;2022-12-18T03:21:49;13.83;;;9.23;;
15406;SDS011;7802;51.568;6.364;2022-12-18T03:24:39;13.60;;;9.80;;
15406;SDS011;7802;51.568;6.364;2022-12-18T03:27:27;14.50;;;10.47;;
15406;SDS011;7802;51.568;6.364;2022-12-18T03:30:20;17.20;;;10.23;;
15406;SDS011;7802;51.568;6.364;2022-12-18T03:33:10;13.63;;;9.30;;
15406;SDS011;7802;51.568;6.364;2022-12-18T03:36:06;13.70;;;9.33;;
15406;SDS011;7802;51.568;6.364;2022-12-18T03:38:53;16.63;;;9.47;;
15406;SDS011;7802;51.568;6.364;2022-12-18T03:41:47;12.70;;;9.50;;
15406;SDS011;7802;51.568;6.364;2022-12-18T03:44:53;14.27;;;9.57;;
15406;SDS011;7802;51.568;6.364;2022-12-18T03:47:47;15.63;;;9.10;;
15406;SDS011;7802;51.568;6.364;2022-12-18T03:50:52;13.30;;;9.63;;
15406;SDS011;7802;51.568;6.364;2022-12-18T03:53:46;13.87;;;9.47;;
15406;SDS011;7802;51.568;6.364;2022-12-18T03:56:41;14.90;;;10.03;;
15406;SDS011;7802;51.568;6.364;2022-12-18T03:59:31;13.93;;;8.83;;
15406;SDS011;7802;51.568;6.364;2022-12-18T04:02:19;14.53;;;9.73;;
15406;SDS011;7802;51.568;6.364;2022-12-18T04:05:09;14.43;;;9.20;;
15406;SDS011;7802;51.568;6.364;2022-12-18T04:08:00;14.20;;;9.07;;
15406;SDS011;7802;51.568;6.364;2022-12-18T04:10:49;12.73;;;9.17;;
15406;SDS011;7802;51.568;6.364;2022-12-18T04:13:38;14.20;;;10.10;;
15406;SDS011;7802;51.568;6.364;2022-12-18T04:16:33;15.17;;;9.37;;
15406;SDS011;7802;51.568;6.364;2022-12-18T04:19:22;15.07;;;9.33;;
15406;SDS011;7802;51.568;6.364;2022-12-18T04:22:11;12.47;;;8.80;;
15406;SDS011;7802;51.568;6.364;2022-12-18T04:25:03;11.80;;;9.20;;
15406;SDS011;7802;51.568;6.364;2022-12-18T04:27:57;13.67;;;9.00;;
15406;SDS011;7802;51.568;6.364;2022-12-18T04:30:44;13.67;;;9.20;;
15406;SDS011;7802;51.568;6.364;2022-12-18T04:33:34;15.60;;;9.10;;
15406;SDS011;7802;51.568;6.364;2022-12-18T04:36:21;12.33;;;9.40;;
15406;SDS011;7802;51.568;6.364;2022-12-18T04:39:12;13.67;;;10.07;;
15406;SDS011;7802;51.568;6.364;2022-12-18T04:42:00;15.50;;;9.67;;
15406;SDS011;7802;51.568;6.364;2022-12-18T04:44:48;12.93;;;9.23;;
15406;SDS011;7802;51.568;6.364;2022-12-18T04:47:35;13.60;;;9.17;;
15406;SDS011;7802;51.568;6.364;2022-12-18T04:50:22;15.53;;;9.53;;
15406;SDS011;7802;51.568;6.364;2022-12-18T04:53:09;13.77;;;8.73;;
15406;SDS011;7802;51.568;6.364;2022-12-18T04:56:03;14.77;;;9.23;;
15406;SDS011;7802;51.568;6.364;2022-12-18T04:58:51;13.20;;;9.40;;
15406;SDS011;7802;51.568;6.364;2022-12-18T05:01:38;13.00;;;8.87;;
15406;SDS011;7802;51.568;6.364;2022-12-18T05:04:25;14.50;;;9.13;;
15406;SDS011;7802;51.568;6.364;2022-12-18T05:07:12;13.07;;;8.90;;
15406;SDS011;7802;51.568;6.364;2022-12-18T05:09:59;12.50;;;8.20;;
15406;SDS011;7802;51.568;6.364;2022-12-18T05:12:46;11.90;;;8.63;;
15406;SDS011;7802;51.568;6.364;2022-12-18T05:15:50;12.00;;;8.03;;
15406;SDS011;7802;51.568;6.364;2022-12-18T05:18:38;10.97;;;8.53;;
15406;SDS011;7802;51.568;6.364;2022-12-18T05:21:26;12.27;;;8.77;;
15406;SDS011;7802;51.568;6.364;2022-12-18T05:24:12;12.70;;;8.47;;
15406;SDS011;7802;51.568;6.364;2022-12-18T05:26:59;12.13;;;8.53;;
15406;SDS011;7802;51.568;6.364;2022-12-18T05:29:46;11.83;;;8.37;;
15406;SDS011;7802;51.568;6.364;2022-12-18T05:32:33;12.20;;;7.97;;
15406;SDS011;7802;51.568;6.364;2022-12-18T05:35:21;10.83;;;8.13;;
15406;SDS011;7802;51.568;6.364;2022-12-18T05:38:08;12.67;;;8.00;;
15406;SDS011;7802;51.568;6.364;2022-12-18T05:40:55;11.17;;;7.83;;
15406;SDS011;7802;51.568;6.364;2022-12-18T05:43:42;11.87;;;7.50;;
15406;SDS011;7802;51.568;6.364;2022-12-18T05:46:29;12.43;;;7.97;;
15406;SDS011;7802;51.568;6.364;2022-12-18T05:49:22;10.37;;;8.23;;
15406;SDS011;7802;51.568;6.364;2022-12-18T05:52:09;14.17;;;8.60;;
15406;SDS011;7802;51.568;6.364;2022-12-18T05:54:56;10.83;;;8.00;;
15406;SDS011;7802;51.568;6.364;2022-12-18T05:57:44;11.10;;;7.83;;
15406;SDS011;7802;51.568;6.364;2022-12-18T06:00:32;9.60;;;7.77;;
15406;SDS011;7802;51.568;6.364;2022-12-18T06:03:21;11.60;;;7.90;;
15406;SDS011;7802;51.568;6.364;2022-12-18T06:06:14;12.73;;;7.47;;
15406;SDS011;7802;51.568;6.364;2022-12-18T06:09:03;9.20;;;7.30;;
15406;SDS011;7802;51.568;6.364;2022-12-18T06:11:54;11.17;;;7.87;;
15406;SDS011;7802;51.568;6.364;2022-12-18T06:14:40;14.83;;;7.80;;
15406;SDS011;7802;51.568;6.364;2022-12-18T06:17:28;11.23;;;8.57;;
15406;SDS011;7802;51.568;6.364;2022-12-18T06:20:15;11.53;;;7.70;;
15406;SDS011;7802;51.568;6.364;2022-12-18T06:23:02;11.60;;;7.47;;
15406;SDS011;7802;51.568;6.364;2022-12-18T06:25:50;12.30;;;8.13;;
15406;SDS011;7802;51.568;6.364;2022-12-18T06:28:37;13.87;;;8.23;;
15406;SDS011;7802;51.568;6.364;2022-12-18T06:31:25;10.00;;;7.93;;
15406;SDS011;7802;51.568;6.364;2022-12-18T06:34:12;9.67;;;6.83;;
15406;SDS011;7802;51.568;6.364;2022-12-18T06:36:59;10.33;;;7.00;;
15406;SDS011;7802;51.568;6.364;2022-12-18T06:39:46;10.67;;;7.37;;
15406;SDS011;7802;51.568;6.364;2022-12-18T06:42:33;10.93;;;7.13;;
15406;SDS011;7802;51.568;6.364;2022-12-18T06:45:20;10.83;;;7.80;;
15406;SDS011;7802;51.568;6.364;2022-12-18T06:48:07;10.10;;;7.63;;
15406;SDS011;7802;51.568;6.364;2022-12-18T06:50:54;10.17;;;6.93;;
15406;SDS011;7802;51.568;6.364;2022-12-18T06:53:44;12.87;;;7.77;;
15406;SDS011;7802;51.568;6.364;2022-12-18T06:56:31;9.97;;;7.33;;
15406;SDS011;7802;51.568;6.364;2022-12-18T06:59:18;9.23;;;6.40;;
15406;SDS011;7802;51.568;6.364;2022-12-18T07:02:05;10.10;;;7.17;;
15406;SDS011;7802;51.568;6.364;2022-12-18T07:05:16;8.17;;;7.13;;
15406;SDS011;7802;51.568;6.364;2022-12-18T07:08:03;9.97;;;7.27;;
15406;SDS011;7802;51.568;6.364;2022-12-18T07:10:50;10.07;;;6.97;;
15406;SDS011;7802;51.568;6.364;2022-12-18T07:13:42;11.20;;;7.53;;
15406;SDS011;7802;51.568;6.364;2022-12-18T07:16:30;9.13;;;7.20;;
15406;SDS011;7802;51.568;6.364;2022-12-18T07:19:17;11.40;;;7.73;;
15406;SDS011;7802;51.568;6.364;2022-12-18T07:22:04;10.37;;;6.83;;
15406;SDS011;7802;51.568;6.364;2022-12-18T07:24:52;9.03;;;6.60;;
15406;SDS011;7802;51.568;6.364;2022-12-18T07:27:39;11.17;;;7.17;;
15406;SDS011;7802;51.568;6.364;2022-12-18T07:30:26;10.53;;;7.07;;
15406;SDS011;7802;51.568;6.364;2022-12-18T07:33:13;12.37;;;7.40;;
15406;SDS011;7802;51.568;6.364;2022-12-18T07:36:00;11.27;;;7.13;;
15406;SDS011;7802;51.568;6.364;2022-12-18T07:39:15;10.57;;;7.50;;
15406;SDS011;7802;51.568;6.364;2022-12-18T07:42:02;11.63;;;7.73;;
15406;SDS011;7802;51.568;6.364;2022-12-18T07:45:09;10.23;;;7.23;;
15406;SDS011;7802;51.568;6.364;2022-12-18T07:47:56;11.73;;;7.07;;
15406;SDS011;7802;51.568;6.364;2022-12-18T07:50:44;11.40;;;7.43;;
15406;SDS011;7802;51.568;6.364;2022-12-18T07:53:31;10.70;;;7.57;;
15406;SDS011;7802;51.568;6.364;2022-12-18T07:56:19;11.70;;;7.10;;
15406;SDS011;7802;51.568;6.364;2022-12-18T07:59:17;8.13;;;6.70;;
15406;SDS011;7802;51.568;6.364;2022-12-18T08:02:04;9.87;;;7.20;;
15406;SDS011;7802;51.568;6.364;2022-12-18T08:04:52;9.53;;;6.67;;
15406;SDS011;7802;51.568;6.364;2022-12-18T08:07:40;11.03;;;6.90;;
15406;SDS011;7802;51.568;6.364;2022-12-18T08:10:27;10.37;;;7.57;;
15406;SDS011;7802;51.568;6.364;2022-12-18T08:13:14;10.37;;;7.13;;
15406;SDS011;7802;51.568;6.364;2022-12-18T08:16:01;10.23;;;6.83;;
15406;SDS011;7802;51.568;6.364;2022-12-18T08:18:51;10.17;;;7.50;;
15406;SDS011;7802;51.568;6.364;2022-12-18T08:21:39;8.57;;;6.80;;
15406;SDS011;7802;51.568;6.364;2022-12-18T08:24:26;10.77;;;7.33;;
15406;SDS011;7802;51.568;6.364;2022-12-18T08:27:14;11.23;;;7.37;;
15406;SDS011;7802;51.568;6.364;2022-12-18T08:30:16;9.07;;;7.23;;
15406;SDS011;7802;51.568;6.364;2022-12-18T08:33:03;10.30;;;7.43;;
15406;SDS011;7802;51.568;6.364;2022-12-18T08:35:51;9.73;;;7.23;;
15406;SDS011;7802;51.568;6.364;2022-12-18T08:38:37;9.80;;;7.10;;
15406;SDS011;7802;51.568;6.364;2022-12-18T08:41:25;10.60;;;7.30;;
15406;SDS011;7802;51.568;6.364;2022-12-18T08:44:12;11.53;;;7.30;;
15406;SDS011;7802;51.568;6.364;2022-12-18T08:47:17;11.67;;;7.63;;
15406;SDS011;7802;51.568;6.364;2022-12-18T08:50:05;8.73;;;7.20;;
15406;SDS011;7802;51.568;6.364;2022-12-18T08:52:52;10.37;;;6.70;;
15406;SDS011;7802;51.568;6.364;2022-12-18T08:55:39;10.30;;;7.53;;
15406;SDS011;7802;51.568;6.364;2022-12-18T08:58:26;11.33;;;7.83;;
15406;SDS011;7802;51.568;6.364;2022-12-18T09:01:13;9.97;;;7.03;;
15406;SDS011;7802;51.568;6.364;2022-12-18T09:04:01;8.80;;;7.07;;
15406;SDS011;7802;51.568;6.364;2022-12-18T09:06:48;10.10;;;7.37;;
15406;SDS011;7802;51.568;6.364;2022-12-18T09:09:35;12.93;;;7.67;;
15406;SDS011;7802;51.568;6.364;2022-12-18T09:12:22;9.53;;;7.03;;
15406;SDS011;7802;51.568;6.364;2022-12-18T09:15:10;11.57;;;7.33;;
15406;SDS011;7802;51.568;6.364;2022-12-18T09:17:57;9.53;;;7.07;;
15406;SDS011;7802;51.568;6.364;2022-12-18T09:20:44;8.87;;;6.87;;
15406;SDS011;7802;51.568;6.364;2022-12-18T09:23:31;10.53;;;7.20;;
15406;SDS011;7802;51.568;6.364;2022-12-18T09:26:18;13.30;;;7.90;;
15406;SDS011;7802;51.568;6.364;2022-12-18T09:29:05;10.53;;;7.67;;
15406;SDS011;7802;51.568;6.364;2022-12-18T09:31:53;12.07;;;7.40;;
15406;SDS011;7802;51.568;6.364;2022-12-18T09:34:40;9.20;;;7.30;;
15406;SDS011;7802;51.568;6.364;2022-12-18T09:37:28;9.90;;;7.20;;
15406;SDS011;7802;51.568;6.364;2022-12-18T09:40:16;9.47;;;7.07;;
15406;SDS011;7802;51.568;6.364;2022-12-18T09:43:05;11.63;;;6.97;;
15406;SDS011;7802;51.568;6.364;2022-12-18T09:45:55;13.50;;;7.47;;
15406;SDS011;7802;51.568;6.364;2022-12-18T09:48:56;10.33;;;6.73;;
15406;SDS011;7802;51.568;6.364;2022-12-18T09:52:08;10.03;;;6.93;;
15406;SDS011;7802;51.568;6.364;2022-12-18T09:54:59;12.03;;;7.67;;
15406;SDS011;7802;51.568;6.364;2022-12-18T09:57:51;18.43;;;7.87;;
15406;SDS011;7802;51.568;6.364;2022-12-18T10:00:37;11.47;;;7.40;;
15406;SDS011;7802;51.568;6.364;2022-12-18T10:03:21;10.90;;;7.30;;
15406;SDS011;7802;51.568;6.364;2022-12-18T10:06:10;10.37;;;7.03;;
15406;SDS011;7802;51.568;6.364;2022-12-18T10:09:01;10.37;;;7.20;;
15406;SDS011;7802;51.568;6.364;2022-12-18T10:11:58;10.23;;;6.80;;
15406;SDS011;7802;51.568;6.364;2022-12-18T10:14:55;11.67;;;7.43;;
15406;SDS011;7802;51.568;6.364;2022-12-18T10:17:49;11.00;;;7.50;;
15406;SDS011;7802;51.568;6.364;2022-12-18T10:20:41;11.20;;;7.40;;
15406;SDS011;7802;51.568;6.364;2022-12-18T10:23:38;9.77;;;6.90;;
15406;SDS011;7802;51.568;6.364;2022-12-18T10:26:34;14.17;;;7.37;;
15406;SDS011;7802;51.568;6.364;2022-12-18T10:29:21;12.37;;;7.40;;
15406;SDS011;7802;51.568;6.364;2022-12-18T10:32:13;9.40;;;6.30;;
15406;SDS011;7802;51.568;6.364;2022-12-18T10:35:02;9.23;;;6.83;;
15406;SDS011;7802;51.568;6.364;2022-12-18T10:37:59;10.33;;;7.10;;
15406;SDS011;7802;51.568;6.364;2022-12-18T10:40:52;9.63;;;6.93;;
15406;SDS011;7802;51.568;6.364;2022-12-18T10:43:40;11.90;;;7.90;;
15406;SDS011;7802;51.568;6.364;2022-12-18T10:46:27;9.77;;;7.53;;
15406;SDS011;7802;51.568;6.364;2022-12-18T10:49:21;11.97;;;7.57;;
15406;SDS011;7802;51.568;6.364;2022-12-18T10:52:13;8.50;;;7.00;;
15406;SDS011;7802;51.568;6.364;2022-12-18T10:55:03;10.10;;;7.50;;
15406;SDS011;7802;51.568;6.364;2022-12-18T10:57:51;10.83;;;7.97;;
15406;SDS011;7802;51.568;6.364;2022-12-18T11:00:38;11.10;;;7.00;;
15406;SDS011;7802;51.568;6.364;2022-12-18T11:03:29;10.60;;;7.23;;
15406;SDS011;7802;51.568;6.364;2022-12-18T11:06:19;9.13;;;7.27;;
15406;SDS011;7802;51.568;6.364;2022-12-18T11:09:18;9.53;;;7.40;;
15406;SDS011;7802;51.568;6.364;2022-12-18T11:12:15;9.27;;;7.23;;
15406;SDS011;7802;51.568;6.364;2022-12-18T11:15:04;14.73;;;8.10;;
15406;SDS011;7802;51.568;6.364;2022-12-18T11:17:52;12.23;;;7.63;;
15406;SDS011;7802;51.568;6.364;2022-12-18T11:20:39;11.07;;;7.97;;
15406;SDS011;7802;51.568;6.364;2022-12-18T11:23:27;10.33;;;7.57;;
15406;SDS011;7802;51.568;6.364;2022-12-18T11:26:14;12.47;;;8.80;;
15406;SDS011;7802;51.568;6.364;2022-12-18T11:29:07;11.27;;;8.17;;
15406;SDS011;7802;51.568;6.364;2022-12-18T11:32:10;9.00;;;7.43;;
15406;SDS011;7802;51.568;6.364;2022-12-18T11:35:15;12.97;;;8.47;;
15406;SDS011;7802;51.568;6.364;2022-12-18T11:38:06;8.87;;;7.37;;
15406;SDS011;7802;51.568;6.364;2022-12-18T11:41:04;9.97;;;7.70;;
15406;SDS011;7802;51.568;6.364;2022-12-18T11:44:03;13.23;;;9.13;;
15406;SDS011;7802;51.568;6.364;2022-12-18T11:47:09;11.40;;;7.93;;
15406;SDS011;7802;51.568;6.364;2022-12-18T11:50:03;9.97;;;7.77;;
15406;SDS011;7802;51.568;6.364;2022-12-18T11:52:58;11.60;;;8.03;;
15406;SDS011;7802;51.568;6.364;2022-12-18T11:55:56;11.90;;;8.47;;
15406;SDS011;7802;51.568;6.364;2022-12-18T11:58:49;10.97;;;8.60;;
15406;SDS011;7802;51.568;6.364;2022-12-18T12:01:44;12.77;;;8.83;;
15406;SDS011;7802;51.568;6.364;2022-12-18T12:04:43;10.83;;;7.80;;
15406;SDS011;7802;51.568;6.364;2022-12-18T12:07:37;11.47;;;7.63;;
15406;SDS011;7802;51.568;6.364;2022-12-18T12:10:36;11.97;;;7.57;;
15406;SDS011;7802;51.568;6.364;2022-12-18T12:13:36;13.00;;;8.47;;
15406;SDS011;7802;51.568;6.364;2022-12-18T12:16:32;11.73;;;8.30;;
15406;SDS011;7802;51.568;6.364;2022-12-18T12:19:33;10.23;;;7.97;;
15406;SDS011;7802;51.568;6.364;2022-12-18T12:22:29;11.40;;;8.20;;
15406;SDS011;7802;51.568;6.364;2022-12-18T12:25:27;12.10;;;8.13;;
15406;SDS011;7802;51.568;6.364;2022-12-18T12:28:21;13.40;;;8.70;;
15406;SDS011;7802;51.568;6.364;2022-12-18T12:31:22;12.17;;;8.07;;
15406;SDS011;7802;51.568;6.364;2022-12-18T12:34:20;11.93;;;8.43;;
15406;SDS011;7802;51.568;6.364;2022-12-18T12:37:15;12.43;;;8.33;;
15406;SDS011;7802;51.568;6.364;2022-12-18T12:40:12;11.57;;;8.50;;
15406;SDS011;7802;51.568;6.364;2022-12-18T12:43:29;10.67;;;8.43;;
15406;SDS011;7802;51.568;6.364;2022-12-18T12:46:23;12.30;;;8.43;;
15406;SDS011;7802;51.568;6.364;2022-12-18T12:49:13;14.13;;;9.33;;
15406;SDS011;7802;51.568;6.364;2022-12-18T12:52:04;12.63;;;8.73;;
15406;SDS011;7802;51.568;6.364;2022-12-18T12:54:53;13.33;;;8.80;;
15406;SDS011;7802;51.568;6.364;2022-12-18T12:57:43;12.70;;;8.67;;
15406;SDS011;7802;51.568;6.364;2022-12-18T13:00:36;13.47;;;9.60;;
15406;SDS011;7802;51.568;6.364;2022-12-18T13:03:30;14.93;;;9.37;;
15406;SDS011;7802;51.568;6.364;2022-12-18T13:06:30;12.83;;;8.40;;
15406;SDS011;7802;51.568;6.364;2022-12-18T13:09:30;11.90;;;8.53;;
15406;SDS011;7802;51.568;6.364;2022-12-18T13:12:20;24.27;;;18.03;;
15406;SDS011;7802;51.568;6.364;2022-12-18T13:15:29;12.80;;;8.93;;
15406;SDS011;7802;51.568;6.364;2022-12-18T13:18:24;14.60;;;9.00;;
15406;SDS011;7802;51.568;6.364;2022-12-18T13:21:15;12.97;;;9.50;;
15406;SDS011;7802;51.568;6.364;2022-12-18T13:24:14;14.97;;;9.33;;
15406;SDS011;7802;51.568;6.364;2022-12-18T13:30:49;14.57;;;10.43;;
15406;SDS011;7802;51.568;6.364;2022-12-18T13:33:42;15.53;;;9.33;;
15406;SDS011;7802;51.568;6.364;2022-12-18T13:36:50;14.97;;;9.70;;
15406;SDS011;7802;51.568;6.364;2022-12-18T13:39:38;11.93;;;8.97;;
15406;SDS011;7802;51.568;6.364;2022-12-18T13:42:35;13.17;;;9.43;;
15406;SDS011;7802;51.568;6.364;2022-12-18T13:45:44;14.73;;;9.87;;
15406;SDS011;7802;51.568;6.364;2022-12-18T13:48:35;13.20;;;9.37;;
15406;SDS011;7802;51.568;6.364;2022-12-18T13:51:24;16.10;;;10.63;;
15406;SDS011;7802;51.568;6.364;2022-12-18T13:54:14;14.30;;;8.77;;
15406;SDS011;7802;51.568;6.364;2022-12-18T13:57:12;14.97;;;9.57;;
15406;SDS011;7802;51.568;6.364;2022-12-18T14:00:16;14.77;;;9.43;;
15406;SDS011;7802;51.568;6.364;2022-12-18T14:03:16;12.63;;;9.77;;
15406;SDS011;7802;51.568;6.364;2022-12-18T14:06:10;12.90;;;9.60;;
15406;SDS011;7802;51.568;6.364;2022-12-18T14:09:20;16.67;;;11.80;;
15406;SDS011;7802;51.568;6.364;2022-12-18T14:12:14;14.13;;;10.60;;
15406;SDS011;7802;51.568;6.364;2022-12-18T14:15:23;18.93;;;11.20;;
15406;SDS011;7802;51.568;6.364;2022-12-18T14:18:19;14.90;;;10.90;;
15406;SDS011;7802;51.568;6.364;2022-12-18T14:21:14;14.27;;;9.93;;
15406;SDS011;7802;51.568;6.364;2022-12-18T14:24:05;12.70;;;9.73;;
15406;SDS011;7802;51.568;6.364;2022-12-18T14:26:58;15.00;;;9.90;;
15406;SDS011;7802;51.568;6.364;2022-12-18T14:30:18;13.43;;;10.40;;
15406;SDS011;7802;51.568;6.364;2022-12-18T14:33:14;13.53;;;10.03;;
15406;SDS011;7802;51.568;6.364;2022-12-18T14:36:04;14.77;;;10.73;;
15406;SDS011;7802;51.568;6.364;2022-12-18T14:38:53;15.77;;;10.53;;
15406;SDS011;7802;51.568;6.364;2022-12-18T14:41:41;14.37;;;10.50;;
15406;SDS011;7802;51.568;6.364;2022-12-18T14:44:28;14.70;;;10.87;;
15406;SDS011;7802;51.568;6.364;2022-12-18T14:47:35;17.33;;;10.90;;
15406;SDS011;7802;51.568;6.364;2022-12-18T14:50:22;17.47;;;11.37;;
15406;SDS011;7802;51.568;6.364;2022-12-18T14:53:18;16.23;;;11.53;;
15406;SDS011;7802;51.568;6.364;2022-12-18T14:56:12;17.00;;;11.37;;
15406;SDS011;7802;51.568;6.364;2022-12-18T14:59:02;13.30;;;10.10;;
15406;SDS011;7802;51.568;6.364;2022-12-18T15:01:55;16.80;;;11.37;;
15406;SDS011;7802;51.568;6.364;2022-12-18T15:04:46;17.27;;;11.50;;
15406;SDS011;7802;51.568;6.364;2022-12-18T15:07:39;17.67;;;11.57;;
15406;SDS011;7802;51.568;6.364;2022-12-18T15:10:28;16.80;;;11.33;;
15406;SDS011;7802;51.568;6.364;2022-12-18T15:13:20;16.73;;;10.43;;
15406;SDS011;7802;51.568;6.364;2022-12-18T15:16:09;18.10;;;11.13;;
15406;SDS011;7802;51.568;6.364;2022-12-18T15:18:58;18.20;;;12.10;;
15406;SDS011;7802;51.568;6.364;2022-12-18T15:21:47;19.03;;;11.57;;
15406;SDS011;7802;51.568;6.364;2022-12-18T15:24:34;17.63;;;11.97;;
15406;SDS011;7802;51.568;6.364;2022-12-18T15:27:29;18.47;;;12.27;;
15406;SDS011;7802;51.568;6.364;2022-12-18T15:30:22;15.43;;;11.47;;
15406;SDS011;7802;51.568;6.364;2022-12-18T15:33:16;17.37;;;11.73;;
15406;SDS011;7802;51.568;6.364;2022-12-18T15:36:09;18.47;;;11.47;;
15406;SDS011;7802;51.568;6.364;2022-12-18T15:39:03;17.93;;;11.97;;
15406;SDS011;7802;51.568;6.364;2022-12-18T15:41:52;18.90;;;12.83;;
15406;SDS011;7802;51.568;6.364;2022-12-18T15:44:59;16.30;;;11.63;;
15406;SDS011;7802;51.568;6.364;2022-12-18T15:47:39;18.20;;;12.03;;
15406;SDS011;7802;51.568;6.364;2022-12-18T15:50:27;19.03;;;12.97;;
15406;SDS011;7802;51.568;6.364;2022-12-18T15:53:15;17.67;;;12.50;;
15406;SDS011;7802;51.568;6.364;2022-12-18T15:56:04;18.93;;;13.50;;
15406;SDS011;7802;51.568;6.364;2022-12-18T15:59:12;18.63;;;12.47;;
15406;SDS011;7802;51.568;6.364;2022-12-18T16:02:00;21.60;;;13.30;;
15406;SDS011;7802;51.568;6.364;2022-12-18T16:04:49;21.20;;;12.83;;
15406;SDS011;7802;51.568;6.364;2022-12-18T16:07:37;19.13;;;13.33;;
15406;SDS011;7802;51.568;6.364;2022-12-18T16:10:24;18.30;;;13.00;;
15406;SDS011;7802;51.568;6.364;2022-12-18T16:13:15;18.63;;;13.10;;
15406;SDS011;7802;51.568;6.364;2022-12-18T16:16:07;19.30;;;13.27;;
15406;SDS011;7802;51.568;6.364;2022-12-18T16:18:54;22.73;;;14.27;;
15406;SDS011;7802;51.568;6.364;2022-12-18T16:21:42;25.97;;;13.73;;
15406;SDS011;7802;51.568;6.364;2022-12-18T16:24:35;23.47;;;14.30;;
15406;SDS011;7802;51.568;6.364;2022-12-18T16:27:23;23.23;;;14.10;;
15406;SDS011;7802;51.568;6.364;2022-12-18T16:30:08;17.77;;;12.47;;
15406;SDS011;7802;51.568;6.364;2022-12-18T16:33:07;19.57;;;13.90;;
15406;SDS011;7802;51.568;6.364;2022-12-18T16:36:05;21.70;;;13.93;;
15406;SDS011;7802;51.568;6.364;2022-12-18T16:38:52;22.27;;;14.67;;
15406;SDS011;7802;51.568;6.364;2022-12-18T16:41:39;21.13;;;13.10;;
15406;SDS011;7802;51.568;6.364;2022-12-18T16:44:26;25.13;;;14.43;;
15406;SDS011;7802;51.568;6.364;2022-12-18T16:47:23;20.97;;;14.10;;
15406;SDS011;7802;51.568;6.364;2022-12-18T16:50:10;20.13;;;13.90;;
15406;SDS011;7802;51.568;6.364;2022-12-18T16:56:09;20.63;;;14.77;;
15406;SDS011;7802;51.568;6.364;2022-12-18T16:58:54;20.47;;;14.43;;
15406;SDS011;7802;51.568;6.364;2022-12-18T17:01:45;21.00;;;14.40;;
15406;SDS011;7802;51.568;6.364;2022-12-18T17:04:42;22.07;;;14.07;;
15406;SDS011;7802;51.568;6.364;2022-12-18T17:07:24;21.73;;;14.33;;
15406;SDS011;7802;51.568;6.364;2022-12-18T17:10:05;22.40;;;14.30;;
15406;SDS011;7802;51.568;6.364;2022-12-18T17:12:53;25.03;;;15.47;;
15406;SDS011;7802;51.568;6.364;2022-12-18T17:15:39;22.60;;;13.97;;
15406;SDS011;7802;51.568;6.364;2022-12-18T17:18:30;23.80;;;14.63;;
15406;SDS011;7802;51.568;6.364;2022-12-18T17:21:18;22.53;;;14.70;;
15406;SDS011;7802;51.568;6.364;2022-12-18T17:24:05;22.23;;;14.87;;
15406;SDS011;7802;51.568;6.364;2022-12-18T17:26:52;25.27;;;15.63;;
15406;SDS011;7802;51.568;6.364;2022-12-18T17:29:37;25.83;;;15.50;;
15406;SDS011;7802;51.568;6.364;2022-12-18T17:32:30;22.33;;;14.73;;
15406;SDS011;7802;51.568;6.364;2022-12-18T17:35:22;23.20;;;15.50;;
15406;SDS011;7802;51.568;6.364;2022-12-18T17:38:05;23.77;;;15.50;;
15406;SDS011;7802;51.568;6.364;2022-12-18T17:40:53;23.40;;;16.40;;
15406;SDS011;7802;51.568;6.364;2022-12-18T17:43:50;21.80;;;14.97;;
15406;SDS011;7802;51.568;6.364;2022-12-18T17:49:42;24.13;;;15.50;;
15406;SDS011;7802;51.568;6.364;2022-12-18T17:52:32;23.73;;;15.63;;
15406;SDS011;7802;51.568;6.364;2022-12-18T17:55:23;25.47;;;15.33;;
15406;SDS011;7802;51.568;6.364;2022-12-18T17:58:11;22.97;;;15.27;;
15406;SDS011;7802;51.568;6.364;2022-12-18T18:00:58;26.73;;;16.63;;
15406;SDS011;7802;51.568;6.364;2022-12-18T18:13:46;22.83;;;16.00;;
15406;SDS011;7802;51.568;6.364;2022-12-18T18:16:50;25.53;;;16.47;;
15406;SDS011;7802;51.568;6.364;2022-12-18T18:22:47;24.87;;;16.07;;
15406;SDS011;7802;51.568;6.364;2022-12-18T18:25:46;24.80;;;16.33;;
15406;SDS011;7802;51.568;6.364;2022-12-18T18:28:39;26.90;;;16.33;;
15406;SDS011;7802;51.568;6.364;2022-12-18T18:31:40;28.33;;;17.13;;
15406;SDS011;7802;51.568;6.364;2022-12-18T18:34:26;24.73;;;16.87;;
15406;SDS011;7802;51.568;6.364;2022-12-18T18:37:14;25.90;;;16.00;;
15406;SDS011;7802;51.568;6.364;2022-12-18T18:40:02;30.63;;;16.43;;
15406;SDS011;7802;51.568;6.364;2022-12-18T18:42:50;24.47;;;16.83;;
15406;SDS011;7802;51.568;6.364;2022-12-18T18:45:40;25.80;;;16.73;;
15406;SDS011;7802;51.568;6.364;2022-12-18T18:48:35;26.60;;;17.73;;
15406;SDS011;7802;51.568;6.364;2022-12-18T18:51:23;25.40;;;16.43;;
15406;SDS011;7802;51.568;6.364;2022-12-18T18:54:10;26.37;;;18.17;;
15406;SDS011;7802;51.568;6.364;2022-12-18T18:57:03;25.27;;;16.90;;
15406;SDS011;7802;51.568;6.364;2022-12-18T19:00:07;23.03;;;16.53;;
15406;SDS011;7802;51.568;6.364;2022-12-18T19:02:34;27.33;;;17.47;;
15406;SDS011;7802;51.568;6.364;2022-12-18T19:05:02;30.40;;;18.07;;
15406;SDS011;7802;51.568;6.364;2022-12-18T19:07:28;28.80;;;17.47;;
15406;SDS011;7802;51.568;6.364;2022-12-18T19:19:49;26.70;;;16.63;;
15406;SDS011;7802;51.568;6.364;2022-12-18T19:22:17;26.67;;;17.37;;
15406;SDS011;7802;51.568;6.364;2022-12-18T19:24:44;26.13;;;17.23;;
15406;SDS011;7802;51.568;6.364;2022-12-18T19:27:11;26.57;;;17.07;;